81.0°F
Current conditions from King Hill
Updated every 5 minutes
 
  Tuesday September 2, 2014

Station Historical Data
Daily Summary for March 18, 2012 Units:  Both    English   Metric
« Previous Day
Next Day »
Daily Weekly Monthly Yearly Custom
  High: Low: Average:
Temperature: 76.0 °F /  24.4 °C 47.4 °F /  8.6 °C 60.6 °F /  15.9 °C
Dew Point: 50.3 °F /  10.2 °C 36.6 °F /  2.6 °C 44.8 °F /  7.1 °C
Humidity: 79% 39% 57%
Wind Speed: 11.0mph /  17.7km/h - 6.5mph /  10.5km/h
Wind Gust: 21.0mph /  33.8km/h - -
Wind- - SSW
Pressure: 30.18 in /  1021.9 hPa 30.02 in /  1016.5 hPa -
Precipitation: 0.00 in /  0 mm    
Historical Graphs
 
 
Tabular Data for March 18, 2012
Time Temperature Dew Point Pressure Wind Wind Speed Wind Gust Humidity Daily Rainfall
00:00 49.9 °F /  9.9 °C 36.6 °F /  2.6 °C 30.17in /  1021.6hPa SSW 7.0mph /  11.3km/h 14.0mph /  22.5km/h 60% 0.01in /  0.3mm
00:05 50.0 °F /  10 °C 36.7 °F /  2.6 °C 30.17in /  1021.6hPa SSW 7.0mph /  11.3km/h 14.0mph /  22.5km/h 60% 0.00in /  0mm
00:10 50.1 °F /  10.1 °C 36.8 °F /  2.7 °C 30.17in /  1021.6hPa SSW 8.0mph /  12.9km/h 12.0mph /  19.3km/h 60% 0.00in /  0mm
00:15 49.9 °F /  9.9 °C 36.6 °F /  2.6 °C 30.17in /  1021.6hPa SSW 7.0mph /  11.3km/h 12.0mph /  19.3km/h 60% 0.00in /  0mm
00:20 49.7 °F /  9.8 °C 36.8 °F /  2.7 °C 30.17in /  1021.6hPa SSW 6.0mph /  9.7km/h 12.0mph /  19.3km/h 61% 0.00in /  0mm
00:30 50.0 °F /  10 °C 37.1 °F /  2.8 °C 30.17in /  1021.6hPa SSW 8.0mph /  12.9km/h 15.0mph /  24.1km/h 61% 0.00in /  0mm
00:35 50.8 °F /  10.4 °C 37.8 °F /  3.2 °C 30.17in /  1021.6hPa SSW 8.0mph /  12.9km/h 16.0mph /  25.7km/h 61% 0.00in /  0mm
00:40 51.2 °F /  10.7 °C 37.8 °F /  3.2 °C 30.17in /  1021.6hPa SSW 7.0mph /  11.3km/h 17.0mph /  27.4km/h 60% 0.00in /  0mm
00:50 52.0 °F /  11.1 °C 38.6 °F /  3.7 °C 30.17in /  1021.6hPa SSW 9.0mph /  14.5km/h 17.0mph /  27.4km/h 60% 0.00in /  0mm
00:55 52.1 °F /  11.2 °C 38.6 °F /  3.7 °C 30.17in /  1021.6hPa SSW 8.0mph /  12.9km/h 20.0mph /  32.2km/h 60% 0.00in /  0mm
01:00 51.9 °F /  11.1 °C 38.5 °F /  3.6 °C 30.17in /  1021.6hPa SSW 7.0mph /  11.3km/h 20.0mph /  32.2km/h 60% 0.00in /  0mm
01:05 51.7 °F /  10.9 °C 38.7 °F /  3.7 °C 30.17in /  1021.6hPa SSW 7.0mph /  11.3km/h 17.0mph /  27.4km/h 61% 0.00in /  0mm
01:15 51.8 °F /  11 °C 38.8 °F /  3.8 °C 30.17in /  1021.6hPa SSW 9.0mph /  14.5km/h 21.0mph /  33.8km/h 61% 0.00in /  0mm
01:20 51.6 °F /  10.9 °C 38.6 °F /  3.7 °C 30.17in /  1021.6hPa SSW 8.0mph /  12.9km/h 21.0mph /  33.8km/h 61% 0.00in /  0mm
01:25 51.5 °F /  10.8 °C 38.5 °F /  3.6 °C 30.17in /  1021.6hPa SSW 8.0mph /  12.9km/h 15.0mph /  24.1km/h 61% 0.00in /  0mm
01:30 51.8 °F /  11 °C 38.8 °F /  3.8 °C 30.17in /  1021.6hPa SSW 8.0mph /  12.9km/h 14.0mph /  22.5km/h 61% 0.00in /  0mm
01:35 51.9 °F /  11.1 °C 39.3 °F /  4.1 °C 30.17in /  1021.6hPa SSW 8.0mph /  12.9km/h 14.0mph /  22.5km/h 62% 0.00in /  0mm
01:40 52.2 °F /  11.2 °C 39.2 °F /  4 °C 30.17in /  1021.6hPa SSW 8.0mph /  12.9km/h 17.0mph /  27.4km/h 61% 0.00in /  0mm
01:45 52.4 °F /  11.3 °C 39.4 °F /  4.1 °C 30.17in /  1021.6hPa SSW 7.0mph /  11.3km/h 17.0mph /  27.4km/h 61% 0.00in /  0mm
01:50 52.6 °F /  11.4 °C 39.5 °F /  4.2 °C 30.17in /  1021.6hPa SSW 8.0mph /  12.9km/h 15.0mph /  24.1km/h 61% 0.00in /  0mm
01:55 52.7 °F /  11.5 °C 39.6 °F /  4.2 °C 30.17in /  1021.6hPa SSW 8.0mph /  12.9km/h 15.0mph /  24.1km/h 61% 0.00in /  0mm
02:00 53.1 °F /  11.7 °C 39.2 °F /  4 °C 30.17in /  1021.6hPa SSW 11.0mph /  17.7km/h 19.0mph /  30.6km/h 59% 0.00in /  0mm
02:05 53.1 °F /  11.7 °C 39.2 °F /  4 °C 30.18in /  1021.9hPa SSW 8.0mph /  12.9km/h 19.0mph /  30.6km/h 59% 0.00in /  0mm
02:10 53.2 °F /  11.8 °C 39.3 °F /  4.1 °C 30.17in /  1021.6hPa SSW 9.0mph /  14.5km/h 17.0mph /  27.4km/h 59% 0.00in /  0mm
02:15 53.1 °F /  11.7 °C 39.2 °F /  4 °C 30.18in /  1021.9hPa SSW 8.0mph /  12.9km/h 16.0mph /  25.7km/h 59% 0.00in /  0mm
02:20 53.0 °F /  11.7 °C 39.1 °F /  3.9 °C 30.17in /  1021.6hPa SSW 8.0mph /  12.9km/h 14.0mph /  22.5km/h 59% 0.00in /  0mm
02:25 53.0 °F /  11.7 °C 39.1 °F /  3.9 °C 30.18in /  1021.9hPa SSW 7.0mph /  11.3km/h 15.0mph /  24.1km/h 59% 0.00in /  0mm
02:30 53.0 °F /  11.7 °C 39.1 °F /  3.9 °C 30.17in /  1021.6hPa SSW 7.0mph /  11.3km/h 18.0mph /  29km/h 59% 0.00in /  0mm
02:40 53.3 °F /  11.8 °C 39.3 °F /  4.1 °C 30.17in /  1021.6hPa SSW 7.0mph /  11.3km/h 15.0mph /  24.1km/h 59% 0.00in /  0mm
02:45 53.4 °F /  11.9 °C 39.0 °F /  3.9 °C 30.17in /  1021.6hPa SSW 6.0mph /  9.7km/h 16.0mph /  25.7km/h 58% 0.00in /  0mm
02:50 53.5 °F /  11.9 °C 39.1 °F /  3.9 °C 30.17in /  1021.6hPa SSW 9.0mph /  14.5km/h 18.0mph /  29km/h 58% 0.00in /  0mm
02:55 53.5 °F /  11.9 °C 39.5 °F /  4.2 °C 30.17in /  1021.6hPa SSW 7.0mph /  11.3km/h 18.0mph /  29km/h 59% 0.00in /  0mm
03:00 53.5 °F /  11.9 °C 39.5 °F /  4.2 °C 30.17in /  1021.6hPa SSW 10.0mph /  16.1km/h 17.0mph /  27.4km/h 59% 0.00in /  0mm
03:05 53.6 °F /  12 °C 39.6 °F /  4.2 °C 30.17in /  1021.6hPa SSW 7.0mph /  11.3km/h 17.0mph /  27.4km/h 59% 0.00in /  0mm
03:10 53.4 °F /  11.9 °C 39.4 °F /  4.1 °C 30.16in /  1021.2hPa SSW 8.0mph /  12.9km/h 16.0mph /  25.7km/h 59% 0.00in /  0mm
03:15 53.3 °F /  11.8 °C 39.3 °F /  4.1 °C 30.17in /  1021.6hPa SSW 7.0mph /  11.3km/h 16.0mph /  25.7km/h 59% 0.00in /  0mm
03:20 53.1 °F /  11.7 °C 39.6 °F /  4.2 °C 30.16in /  1021.2hPa SSW 8.0mph /  12.9km/h 15.0mph /  24.1km/h 60% 0.00in /  0mm
03:25 53.1 °F /  11.7 °C 39.6 °F /  4.2 °C 30.16in /  1021.2hPa SSW 10.0mph /  16.1km/h 18.0mph /  29km/h 60% 0.00in /  0mm
03:30 53.1 °F /  11.7 °C 39.6 °F /  4.2 °C 30.16in /  1021.2hPa SSW 8.0mph /  12.9km/h 18.0mph /  29km/h 60% 0.00in /  0mm
03:35 53.0 °F /  11.7 °C 39.5 °F /  4.2 °C 30.16in /  1021.2hPa SSW 9.0mph /  14.5km/h 17.0mph /  27.4km/h 60% 0.00in /  0mm
03:45 52.6 °F /  11.4 °C 39.5 °F /  4.2 °C 30.16in /  1021.2hPa SSW 8.0mph /  12.9km/h 16.0mph /  25.7km/h 61% 0.00in /  0mm
03:50 52.4 °F /  11.3 °C 39.8 °F /  4.3 °C 30.16in /  1021.2hPa SSW 8.0mph /  12.9km/h 13.0mph /  20.9km/h 62% 0.00in /  0mm
03:55 52.3 °F /  11.3 °C 39.7 °F /  4.3 °C 30.16in /  1021.2hPa SSW 9.0mph /  14.5km/h 16.0mph /  25.7km/h 62% 0.00in /  0mm
04:00 52.1 °F /  11.2 °C 39.5 °F /  4.2 °C 30.15in /  1020.9hPa SSW 8.0mph /  12.9km/h 18.0mph /  29km/h 62% 0.00in /  0mm
04:05 51.9 °F /  11.1 °C 39.3 °F /  4.1 °C 30.16in /  1021.2hPa SSW 7.0mph /  11.3km/h 18.0mph /  29km/h 62% 0.00in /  0mm
04:10 51.7 °F /  10.9 °C 39.5 °F /  4.2 °C 30.16in /  1021.2hPa SSW 9.0mph /  14.5km/h 14.0mph /  22.5km/h 63% 0.00in /  0mm
04:15 51.5 °F /  10.8 °C 39.3 °F /  4.1 °C 30.16in /  1021.2hPa SSW 8.0mph /  12.9km/h 13.0mph /  20.9km/h 63% 0.00in /  0mm
04:20 51.4 °F /  10.8 °C 39.2 °F /  4 °C 30.16in /  1021.2hPa SSW 8.0mph /  12.9km/h 13.0mph /  20.9km/h 63% 0.00in /  0mm
04:25 51.3 °F /  10.7 °C 39.5 °F /  4.2 °C 30.16in /  1021.2hPa SSW 7.0mph /  11.3km/h 14.0mph /  22.5km/h 64% 0.00in /  0mm
04:30 51.5 °F /  10.8 °C 39.3 °F /  4.1 °C 30.16in /  1021.2hPa SSW 8.0mph /  12.9km/h 18.0mph /  29km/h 63% 0.00in /  0mm
04:40 51.5 °F /  10.8 °C 39.7 °F /  4.3 °C 30.16in /  1021.2hPa SSW 7.0mph /  11.3km/h 17.0mph /  27.4km/h 64% 0.00in /  0mm
04:45 51.4 °F /  10.8 °C 40.0 °F /  4.4 °C 30.16in /  1021.2hPa SSW 9.0mph /  14.5km/h 17.0mph /  27.4km/h 65% 0.00in /  0mm
04:50 51.3 °F /  10.7 °C 39.9 °F /  4.4 °C 30.16in /  1021.2hPa SSW 9.0mph /  14.5km/h 16.0mph /  25.7km/h 65% 0.00in /  0mm
04:55 51.2 °F /  10.7 °C 40.2 °F /  4.6 °C 30.16in /  1021.2hPa SSW 9.0mph /  14.5km/h 13.0mph /  20.9km/h 66% 0.00in /  0mm
05:00 51.2 °F /  10.7 °C 40.2 °F /  4.6 °C 30.16in /  1021.2hPa SSW 7.0mph /  11.3km/h 14.0mph /  22.5km/h 66% 0.00in /  0mm
05:05 51.0 °F /  10.6 °C 40.0 °F /  4.4 °C 30.16in /  1021.2hPa SSW 8.0mph /  12.9km/h 15.0mph /  24.1km/h 66% 0.00in /  0mm
05:10 50.8 °F /  10.4 °C 40.2 °F /  4.6 °C 30.16in /  1021.2hPa SSW 8.0mph /  12.9km/h 15.0mph /  24.1km/h 67% 0.00in /  0mm
05:15 50.5 °F /  10.3 °C 40.3 °F /  4.6 °C 30.16in /  1021.2hPa SSW 7.0mph /  11.3km/h 14.0mph /  22.5km/h 68% 0.00in /  0mm
05:20 50.5 °F /  10.3 °C 40.3 °F /  4.6 °C 30.16in /  1021.2hPa SSW 8.0mph /  12.9km/h 14.0mph /  22.5km/h 68% 0.00in /  0mm
05:25 50.6 °F /  10.3 °C 40.8 °F /  4.9 °C 30.16in /  1021.2hPa SSW 8.0mph /  12.9km/h 16.0mph /  25.7km/h 69% 0.00in /  0mm
05:30 50.5 °F /  10.3 °C 41.1 °F /  5.1 °C 30.16in /  1021.2hPa SSW 8.0mph /  12.9km/h 17.0mph /  27.4km/h 70% 0.00in /  0mm
05:35 50.4 °F /  10.2 °C 41.4 °F /  5.2 °C 30.17in /  1021.6hPa SSW 9.0mph /  14.5km/h 17.0mph /  27.4km/h 71% 0.00in /  0mm
05:45 50.3 °F /  10.2 °C 41.3 °F /  5.2 °C 30.17in /  1021.6hPa SW 7.0mph /  11.3km/h 16.0mph /  25.7km/h 71% 0.00in /  0mm
05:50 50.2 °F /  10.1 °C 41.5 °F /  5.3 °C 30.17in /  1021.6hPa SSW 7.0mph /  11.3km/h 14.0mph /  22.5km/h 72% 0.00in /  0mm
05:55 49.8 °F /  9.9 °C 41.1 °F /  5.1 °C 30.17in /  1021.6hPa SSW 8.0mph /  12.9km/h 14.0mph /  22.5km/h 72% 0.00in /  0mm
06:00 49.6 °F /  9.8 °C 41.0 °F /  5 °C 30.17in /  1021.6hPa SSW 9.0mph /  14.5km/h 14.0mph /  22.5km/h 72% 0.00in /  0mm
06:05 49.6 °F /  9.8 °C 41.3 °F /  5.2 °C 30.17in /  1021.6hPa SSW 10.0mph /  16.1km/h 14.0mph /  22.5km/h 73% 0.00in /  0mm
06:10 49.5 °F /  9.7 °C 41.2 °F /  5.1 °C 30.16in /  1021.2hPa SSW 7.0mph /  11.3km/h 15.0mph /  24.1km/h 73% 0.00in /  0mm
06:15 49.4 °F /  9.7 °C 41.1 °F /  5.1 °C 30.16in /  1021.2hPa SSW 8.0mph /  12.9km/h 15.0mph /  24.1km/h 73% 0.00in /  0mm
06:20 49.4 °F /  9.7 °C 41.1 °F /  5.1 °C 30.16in /  1021.2hPa SSW 8.0mph /  12.9km/h 15.0mph /  24.1km/h 73% 0.00in /  0mm
06:25 49.5 °F /  9.7 °C 41.2 °F /  5.1 °C 30.16in /  1021.2hPa SSW 9.0mph /  14.5km/h 15.0mph /  24.1km/h 73% 0.00in /  0mm
06:30 49.4 °F /  9.7 °C 41.1 °F /  5.1 °C 30.16in /  1021.2hPa SSW 8.0mph /  12.9km/h 15.0mph /  24.1km/h 73% 0.00in /  0mm
06:35 49.2 °F /  9.6 °C 40.9 °F /  4.9 °C 30.16in /  1021.2hPa SW 9.0mph /  14.5km/h 14.0mph /  22.5km/h 73% 0.00in /  0mm
06:39 48.9 °F /  9.4 °C 41.0 °F /  5 °C 30.16in /  1021.2hPa SW 8.0mph /  12.9km/h 14.0mph /  22.5km/h 74% 0.00in /  0mm
06:45 48.5 °F /  9.2 °C 40.6 °F /  4.8 °C 30.16in /  1021.2hPa SW 8.0mph /  12.9km/h 13.0mph /  20.9km/h 74% 0.00in /  0mm
06:55 48.2 °F /  9 °C 42.0 °F /  5.6 °C 30.17in /  1021.6hPa SW 8.0mph /  12.9km/h 14.0mph /  22.5km/h 79% 0.00in /  0mm
07:00 48.1 °F /  8.9 °C 40.9 °F /  4.9 °C 30.17in /  1021.6hPa SSW 10.0mph /  16.1km/h 14.0mph /  22.5km/h 76% 0.00in /  0mm
07:05 48.1 °F /  8.9 °C 40.9 °F /  4.9 °C 30.17in /  1021.6hPa SSW 7.0mph /  11.3km/h 14.0mph /  22.5km/h 76% 0.00in /  0mm
07:09 47.9 °F /  8.8 °C 40.7 °F /  4.8 °C 30.17in /  1021.6hPa SSW 7.0mph /  11.3km/h 13.0mph /  20.9km/h 76% 0.00in /  0mm
07:15 47.7 °F /  8.7 °C 40.8 °F /  4.9 °C 30.17in /  1021.6hPa SSW 6.0mph /  9.7km/h 13.0mph /  20.9km/h 77% 0.00in /  0mm
07:20 47.6 °F /  8.7 °C 40.8 °F /  4.9 °C 30.17in /  1021.6hPa SW 9.0mph /  14.5km/h 13.0mph /  20.9km/h 77% 0.00in /  0mm
07:25 47.6 °F /  8.7 °C 40.8 °F /  4.9 °C 30.17in /  1021.6hPa SSW 9.0mph /  14.5km/h 15.0mph /  24.1km/h 77% 0.00in /  0mm
07:35 47.4 °F /  8.6 °C 40.6 °F /  4.8 °C 30.17in /  1021.6hPa SSW 7.0mph /  11.3km/h 13.0mph /  20.9km/h 77% 0.00in /  0mm
07:40 47.4 °F /  8.6 °C 40.6 °F /  4.8 °C 30.17in /  1021.6hPa SW 9.0mph /  14.5km/h 13.0mph /  20.9km/h 77% 0.00in /  0mm
07:49 47.7 °F /  8.7 °C 41.2 °F /  5.1 °C 30.17in /  1021.6hPa SW 10.0mph /  16.1km/h 17.0mph /  27.4km/h 78% 0.00in /  0mm
07:55 47.9 °F /  8.8 °C 41.4 °F /  5.2 °C 30.17in /  1021.6hPa SSW 8.0mph /  12.9km/h 17.0mph /  27.4km/h 78% 0.00in /  0mm
07:59 48.2 °F /  9 °C 41.3 °F /  5.2 °C 30.18in /  1021.9hPa SW 10.0mph /  16.1km/h 16.0mph /  25.7km/h 77% 0.00in /  0mm
08:05 48.6 °F /  9.2 °C 41.7 °F /  5.4 °C 30.17in /  1021.6hPa SW 9.0mph /  14.5km/h 16.0mph /  25.7km/h 77% 0.00in /  0mm
08:10 48.9 °F /  9.4 °C 42.0 °F /  5.6 °C 30.18in /  1021.9hPa SW 9.0mph /  14.5km/h 15.0mph /  24.1km/h 77% 0.00in /  0mm
08:15 49.2 °F /  9.6 °C 42.0 °F /  5.6 °C 30.18in /  1021.9hPa SW 9.0mph /  14.5km/h 16.0mph /  25.7km/h 76% 0.00in /  0mm
08:19 49.5 °F /  9.7 °C 42.3 °F /  5.7 °C 30.17in /  1021.6hPa SSW 11.0mph /  17.7km/h 16.0mph /  25.7km/h 76% 0.00in /  0mm
08:25 49.7 °F /  9.8 °C 42.1 °F /  5.6 °C 30.17in /  1021.6hPa SW 11.0mph /  17.7km/h 17.0mph /  27.4km/h 75% 0.00in /  0mm
08:30 50.0 °F /  10 °C 42.4 °F /  5.8 °C 30.17in /  1021.6hPa SW 10.0mph /  16.1km/h 18.0mph /  29km/h 75% 0.00in /  0mm
08:35 50.2 °F /  10.1 °C 42.2 °F /  5.7 °C 30.18in /  1021.9hPa SW 11.0mph /  17.7km/h 18.0mph /  29km/h 74% 0.00in /  0mm
08:45 50.9 °F /  10.5 °C 42.9 °F /  6.1 °C 30.18in /  1021.9hPa SW 10.0mph /  16.1km/h 18.0mph /  29km/h 74% 0.00in /  0mm
08:55 51.9 °F /  11.1 °C 43.2 °F /  6.2 °C 30.18in /  1021.9hPa SW 9.0mph /  14.5km/h 16.0mph /  25.7km/h 72% 0.00in /  0mm
08:59 52.4 °F /  11.3 °C 43.6 °F /  6.4 °C 30.18in /  1021.9hPa SW 8.0mph /  12.9km/h 18.0mph /  29km/h 72% 0.00in /  0mm
09:05 52.6 °F /  11.4 °C 43.5 °F /  6.4 °C 30.18in /  1021.9hPa SSW 9.0mph /  14.5km/h 19.0mph /  30.6km/h 71% 0.00in /  0mm
09:10 53.0 °F /  11.7 °C 43.5 °F /  6.4 °C 30.18in /  1021.9hPa SW 8.0mph /  12.9km/h 19.0mph /  30.6km/h 70% 0.00in /  0mm
09:14 53.3 °F /  11.8 °C 43.8 °F /  6.6 °C 30.18in /  1021.9hPa SW 8.0mph /  12.9km/h 19.0mph /  30.6km/h 70% 0.00in /  0mm
09:20 53.6 °F /  12 °C 43.7 °F /  6.5 °C 30.18in /  1021.9hPa SW 10.0mph /  16.1km/h 18.0mph /  29km/h 69% 0.00in /  0mm
09:25 53.8 °F /  12.1 °C 43.9 °F /  6.6 °C 30.18in /  1021.9hPa SSW 7.0mph /  11.3km/h 17.0mph /  27.4km/h 69% 0.00in /  0mm
09:30 54.2 °F /  12.3 °C 43.9 °F /  6.6 °C 30.18in /  1021.9hPa SSW 8.0mph /  12.9km/h 17.0mph /  27.4km/h 68% 0.00in /  0mm
09:35 54.3 °F /  12.4 °C 44.0 °F /  6.7 °C 30.18in /  1021.9hPa SW 9.0mph /  14.5km/h 17.0mph /  27.4km/h 68% 0.00in /  0mm
09:44 55.1 °F /  12.8 °C 44.3 °F /  6.8 °C 30.18in /  1021.9hPa SSW 7.0mph /  11.3km/h 17.0mph /  27.4km/h 67% 0.00in /  0mm
09:50 55.5 °F /  13.1 °C 44.3 °F /  6.8 °C 30.18in /  1021.9hPa SSW 9.0mph /  14.5km/h 16.0mph /  25.7km/h 66% 0.00in /  0mm
09:54 55.8 °F /  13.2 °C 44.6 °F /  7 °C 30.18in /  1021.9hPa SSW 9.0mph /  14.5km/h 18.0mph /  29km/h 66% 0.00in /  0mm
10:00 56.1 °F /  13.4 °C 44.5 °F /  6.9 °C 30.18in /  1021.9hPa SSW 7.0mph /  11.3km/h 18.0mph /  29km/h 65% 0.00in /  0mm
10:05 56.6 °F /  13.7 °C 45.0 °F /  7.2 °C 30.18in /  1021.9hPa SW 8.0mph /  12.9km/h 16.0mph /  25.7km/h 65% 0.00in /  0mm
10:09 57.2 °F /  14 °C 44.7 °F /  7.1 °C 30.18in /  1021.9hPa SW 8.0mph /  12.9km/h 15.0mph /  24.1km/h 63% 0.00in /  0mm
10:15 57.5 °F /  14.2 °C 45.4 °F /  7.4 °C 30.18in /  1021.9hPa SSW 6.0mph /  9.7km/h 15.0mph /  24.1km/h 64% 0.00in /  0mm
10:20 58.1 °F /  14.5 °C 45.6 °F /  7.6 °C 30.18in /  1021.9hPa SSW 7.0mph /  11.3km/h 15.0mph /  24.1km/h 63% 0.00in /  0mm
10:25 58.4 °F /  14.7 °C 45.4 °F /  7.4 °C 30.18in /  1021.9hPa SW 5.0mph /  8km/h 15.0mph /  24.1km/h 62% 0.00in /  0mm
10:30 58.6 °F /  14.8 °C 45.2 °F /  7.3 °C 30.18in /  1021.9hPa SSW 8.0mph /  12.9km/h 17.0mph /  27.4km/h 61% 0.00in /  0mm
10:35 59.0 °F /  15 °C 45.6 °F /  7.6 °C 30.18in /  1021.9hPa SW 5.0mph /  8km/h 17.0mph /  27.4km/h 61% 0.00in /  0mm
10:40 59.8 °F /  15.4 °C 46.3 °F /  7.9 °C 30.17in /  1021.6hPa SW 4.0mph /  6.4km/h 13.0mph /  20.9km/h 61% 0.00in /  0mm
10:50 60.7 °F /  15.9 °C 46.3 °F /  7.9 °C 30.17in /  1021.6hPa SSW 5.0mph /  8km/h 14.0mph /  22.5km/h 59% 0.00in /  0mm
10:55 61.6 °F /  16.4 °C 46.7 °F /  8.2 °C 30.18in /  1021.9hPa SW 5.0mph /  8km/h 11.0mph /  17.7km/h 58% 0.00in /  0mm
11:00 61.5 °F /  16.4 °C 46.1 °F /  7.8 °C 30.18in /  1021.9hPa SSW 6.0mph /  9.7km/h 12.0mph /  19.3km/h 57% 0.00in /  0mm
11:04 61.6 °F /  16.4 °C 46.7 °F /  8.2 °C 30.18in /  1021.9hPa South 7.0mph /  11.3km/h 12.0mph /  19.3km/h 58% 0.00in /  0mm
11:10 61.6 °F /  16.4 °C 46.2 °F /  7.9 °C 30.17in /  1021.6hPa SSW 7.0mph /  11.3km/h 12.0mph /  19.3km/h 57% 0.00in /  0mm
11:15 62.0 °F /  16.7 °C 46.6 °F /  8.1 °C 30.17in /  1021.6hPa SSW 8.0mph /  12.9km/h 16.0mph /  25.7km/h 57% 0.00in /  0mm
11:19 62.1 °F /  16.7 °C 46.2 °F /  7.9 °C 30.17in /  1021.6hPa SW 9.0mph /  14.5km/h 16.0mph /  25.7km/h 56% 0.00in /  0mm
11:25 62.3 °F /  16.8 °C 46.4 °F /  8 °C 30.17in /  1021.6hPa SW 6.0mph /  9.7km/h 16.0mph /  25.7km/h 56% 0.00in /  0mm
11:35 62.9 °F /  17.2 °C 47.0 °F /  8.3 °C 30.17in /  1021.6hPa SW 5.0mph /  8km/h 13.0mph /  20.9km/h 56% 0.00in /  0mm
11:40 63.2 °F /  17.3 °C 47.3 °F /  8.5 °C 30.17in /  1021.6hPa SW 5.0mph /  8km/h 13.0mph /  20.9km/h 56% 0.00in /  0mm
11:50 64.1 °F /  17.8 °C 47.1 °F /  8.4 °C 30.17in /  1021.6hPa South 5.0mph /  8km/h 13.0mph /  20.9km/h 54% 0.00in /  0mm
11:55 64.6 °F /  18.1 °C 47.1 °F /  8.4 °C 30.17in /  1021.6hPa SW 8.0mph /  12.9km/h 14.0mph /  22.5km/h 53% 0.00in /  0mm
11:59 64.6 °F /  18.1 °C 47.1 °F /  8.4 °C 30.16in /  1021.2hPa SSW 7.0mph /  11.3km/h 14.0mph /  22.5km/h 53% 0.00in /  0mm
12:05 64.8 °F /  18.2 °C 47.8 °F /  8.8 °C 30.16in /  1021.2hPa SW 5.0mph /  8km/h 14.0mph /  22.5km/h 54% 0.00in /  0mm
12:10 64.8 °F /  18.2 °C 47.3 °F /  8.5 °C 30.16in /  1021.2hPa SW 8.0mph /  12.9km/h 14.0mph /  22.5km/h 53% 0.00in /  0mm
12:20 65.9 °F /  18.8 °C 47.8 °F /  8.8 °C 30.15in /  1020.9hPa SSW 9.0mph /  14.5km/h 15.0mph /  24.1km/h 52% 0.00in /  0mm
12:25 66.1 °F /  18.9 °C 47.5 °F /  8.6 °C 30.15in /  1020.9hPa SSW 9.0mph /  14.5km/h 17.0mph /  27.4km/h 51% 0.00in /  0mm
12:35 66.7 °F /  19.3 °C 49.0 °F /  9.4 °C 30.14in /  1020.5hPa SW 6.0mph /  9.7km/h 17.0mph /  27.4km/h 53% 0.00in /  0mm
12:40 66.9 °F /  19.4 °C 48.2 °F /  9 °C 30.15in /  1020.9hPa SSW 8.0mph /  12.9km/h 15.0mph /  24.1km/h 51% 0.00in /  0mm
12:44 67.2 °F /  19.6 °C 47.9 °F /  8.8 °C 30.14in /  1020.5hPa SW 8.0mph /  12.9km/h 15.0mph /  24.1km/h 50% 0.00in /  0mm
12:50 67.8 °F /  19.9 °C 48.0 °F /  8.9 °C 30.14in /  1020.5hPa SSW 10.0mph /  16.1km/h 14.0mph /  22.5km/h 49% 0.00in /  0mm
12:55 68.6 °F /  20.3 °C 48.7 °F /  9.3 °C 30.14in /  1020.5hPa SSW 6.0mph /  9.7km/h 14.0mph /  22.5km/h 49% 0.00in /  0mm
12:59 68.9 °F /  20.5 °C 49.0 °F /  9.4 °C 30.13in /  1020.2hPa SSW 6.0mph /  9.7km/h 14.0mph /  22.5km/h 49% 0.00in /  0mm
13:05 68.8 °F /  20.4 °C 48.3 °F /  9.1 °C 30.13in /  1020.2hPa SW 9.0mph /  14.5km/h 16.0mph /  25.7km/h 48% 0.00in /  0mm
13:10 69.0 °F /  20.6 °C 48.5 °F /  9.2 °C 30.13in /  1020.2hPa SSW 9.0mph /  14.5km/h 16.0mph /  25.7km/h 48% 0.00in /  0mm
13:14 69.3 °F /  20.7 °C 48.2 °F /  9 °C 30.12in /  1019.9hPa SSW 7.0mph /  11.3km/h 15.0mph /  24.1km/h 47% 0.00in /  0mm
13:20 70.1 °F /  21.2 °C 50.1 °F /  10.1 °C 30.12in /  1019.9hPa SW 7.0mph /  11.3km/h 15.0mph /  24.1km/h 49% 0.00in /  0mm
13:25 69.9 °F /  21.1 °C 48.8 °F /  9.3 °C 30.12in /  1019.9hPa SW 10.0mph /  16.1km/h 17.0mph /  27.4km/h 47% 0.00in /  0mm
13:30 70.2 °F /  21.2 °C 47.9 °F /  8.8 °C 30.12in /  1019.9hPa SSW 10.0mph /  16.1km/h 17.0mph /  27.4km/h 45% 0.00in /  0mm
13:35 70.3 °F /  21.3 °C 48.6 °F /  9.2 °C 30.11in /  1019.5hPa SSW 7.0mph /  11.3km/h 15.0mph /  24.1km/h 46% 0.00in /  0mm
13:45 71.3 °F /  21.8 °C 48.9 °F /  9.4 °C 30.11in /  1019.5hPa South 7.0mph /  11.3km/h 13.0mph /  20.9km/h 45% 0.00in /  0mm
13:50 71.5 °F /  21.9 °C 49.1 °F /  9.5 °C 30.10in /  1019.2hPa SSW 8.0mph /  12.9km/h 12.0mph /  19.3km/h 45% 0.00in /  0mm
13:55 71.3 °F /  21.8 °C 48.9 °F /  9.4 °C 30.10in /  1019.2hPa SSW 8.0mph /  12.9km/h 17.0mph /  27.4km/h 45% 0.00in /  0mm
14:00 71.2 °F /  21.8 °C 49.4 °F /  9.7 °C 30.10in /  1019.2hPa SSW 8.0mph /  12.9km/h 17.0mph /  27.4km/h 46% 0.00in /  0mm
14:05 71.5 °F /  21.9 °C 48.5 °F /  9.2 °C 30.10in /  1019.2hPa SSW 8.0mph /  12.9km/h 15.0mph /  24.1km/h 44% 0.00in /  0mm
14:10 71.5 °F /  21.9 °C 48.5 °F /  9.2 °C 30.10in /  1019.2hPa SSW 9.0mph /  14.5km/h 15.0mph /  24.1km/h 44% 0.00in /  0mm
14:14 72.1 °F /  22.3 °C 49.0 °F /  9.4 °C 30.09in /  1018.8hPa SSW 10.0mph /  16.1km/h 16.0mph /  25.7km/h 44% 0.00in /  0mm
14:20 72.5 °F /  22.5 °C 50.0 °F /  10 °C 30.09in /  1018.8hPa SSW 5.0mph /  8km/h 16.0mph /  25.7km/h 45% 0.00in /  0mm
14:24 72.8 °F /  22.7 °C 49.6 °F /  9.8 °C 30.08in /  1018.5hPa South 7.0mph /  11.3km/h 16.0mph /  25.7km/h 44% 0.00in /  0mm
14:30 73.5 °F /  23.1 °C 50.3 °F /  10.2 °C 30.08in /  1018.5hPa SW 5.0mph /  8km/h 12.0mph /  19.3km/h 44% 0.00in /  0mm
14:35 73.8 °F /  23.2 °C 49.3 °F /  9.6 °C 30.08in /  1018.5hPa SSW 8.0mph /  12.9km/h 14.0mph /  22.5km/h 42% 0.00in /  0mm
14:40 73.7 °F /  23.2 °C 49.2 °F /  9.6 °C 30.08in /  1018.5hPa SSW 8.0mph /  12.9km/h 14.0mph /  22.5km/h 42% 0.00in /  0mm
14:45 74.0 °F /  23.3 °C 50.1 °F /  10.1 °C 30.08in /  1018.5hPa South 6.0mph /  9.7km/h 13.0mph /  20.9km/h 43% 0.00in /  0mm
14:55 73.9 °F /  23.3 °C 50.0 °F /  10 °C 30.07in /  1018.2hPa SSW 7.0mph /  11.3km/h 16.0mph /  25.7km/h 43% 0.00in /  0mm
15:00 73.7 °F /  23.2 °C 49.2 °F /  9.6 °C 30.07in /  1018.2hPa SSW 9.0mph /  14.5km/h 15.0mph /  24.1km/h 42% 0.00in /  0mm
15:05 73.7 °F /  23.2 °C 49.2 °F /  9.6 °C 30.07in /  1018.2hPa SW 8.0mph /  12.9km/h 15.0mph /  24.1km/h 42% 0.00in /  0mm
15:10 74.5 °F /  23.6 °C 49.9 °F /  9.9 °C 30.07in /  1018.2hPa SSW 7.0mph /  11.3km/h 13.0mph /  20.9km/h 42% 0.00in /  0mm
15:15 74.9 °F /  23.8 °C 49.6 °F /  9.8 °C 30.06in /  1017.8hPa SSW 6.0mph /  9.7km/h 13.0mph /  20.9km/h 41% 0.00in /  0mm
15:20 74.8 °F /  23.8 °C 49.6 °F /  9.8 °C 30.06in /  1017.8hPa SSW 8.0mph /  12.9km/h 16.0mph /  25.7km/h 41% 0.00in /  0mm
15:25 74.8 °F /  23.8 °C 48.9 °F /  9.4 °C 30.06in /  1017.8hPa SSW 9.0mph /  14.5km/h 16.0mph /  25.7km/h 40% 0.00in /  0mm
15:29 75.1 °F /  23.9 °C 49.2 °F /  9.6 °C 30.06in /  1017.8hPa SSW 6.0mph /  9.7km/h 14.0mph /  22.5km/h 40% 0.00in /  0mm
15:35 75.3 °F /  24.1 °C 49.3 °F /  9.6 °C 30.06in /  1017.8hPa SSW 6.0mph /  9.7km/h 14.0mph /  22.5km/h 40% 0.00in /  0mm
15:40 75.7 °F /  24.3 °C 49.0 °F /  9.4 °C 30.06in /  1017.8hPa SSW 6.0mph /  9.7km/h 14.0mph /  22.5km/h 39% 0.00in /  0mm
15:45 75.4 °F /  24.1 °C 49.4 °F /  9.7 °C 30.06in /  1017.8hPa SSW 7.0mph /  11.3km/h 13.0mph /  20.9km/h 40% 0.00in /  0mm
15:50 75.6 °F /  24.2 °C 48.9 °F /  9.4 °C 30.06in /  1017.8hPa SSW 7.0mph /  11.3km/h 13.0mph /  20.9km/h 39% 0.00in /  0mm
15:55 75.7 °F /  24.3 °C 49.0 °F /  9.4 °C 30.05in /  1017.5hPa SW 7.0mph /  11.3km/h 12.0mph /  19.3km/h 39% 0.00in /  0mm
15:59 76.0 °F /  24.4 °C 50.0 °F /  10 °C 30.06in /  1017.8hPa SSW 4.0mph /  6.4km/h 12.0mph /  19.3km/h 40% 0.00in /  0mm
16:05 76.0 °F /  24.4 °C 49.3 °F /  9.6 °C 30.05in /  1017.5hPa SSW 6.0mph /  9.7km/h 12.0mph /  19.3km/h 39% 0.00in /  0mm
16:10 75.5 °F /  24.2 °C 48.8 °F /  9.3 °C 30.05in /  1017.5hPa SW 5.0mph /  8km/h 12.0mph /  19.3km/h 39% 0.00in /  0mm
16:15 75.8 °F /  24.3 °C 49.1 °F /  9.5 °C 30.05in /  1017.5hPa SW 7.0mph /  11.3km/h 12.0mph /  19.3km/h 39% 0.00in /  0mm
16:20 76.0 °F /  24.4 °C 50.0 °F /  10 °C 30.05in /  1017.5hPa SSW 3.0mph /  4.8km/h 11.0mph /  17.7km/h 40% 0.00in /  0mm
16:25 76.0 °F /  24.4 °C 49.3 °F /  9.6 °C 30.05in /  1017.5hPa SSW 7.0mph /  11.3km/h 13.0mph /  20.9km/h 39% 0.00in /  0mm
16:30 75.4 °F /  24.1 °C 49.4 °F /  9.7 °C 30.05in /  1017.5hPa SSW 7.0mph /  11.3km/h 13.0mph /  20.9km/h 40% 0.00in /  0mm
16:34 75.6 °F /  24.2 °C 49.6 °F /  9.8 °C 30.05in /  1017.5hPa SSW 6.0mph /  9.7km/h 12.0mph /  19.3km/h 40% 0.00in /  0mm
16:40 75.5 °F /  24.2 °C 49.5 °F /  9.7 °C 30.04in /  1017.2hPa SSW 5.0mph /  8km/h 11.0mph /  17.7km/h 40% 0.00in /  0mm
16:45 75.4 °F /  24.1 °C 49.4 °F /  9.7 °C 30.05in /  1017.5hPa SSW 7.0mph /  11.3km/h 14.0mph /  22.5km/h 40% 0.00in /  0mm
16:50 75.3 °F /  24.1 °C 50.0 °F /  10 °C 30.04in /  1017.2hPa South 2.0mph /  3.2km/h 14.0mph /  22.5km/h 41% 0.00in /  0mm
16:55 75.4 °F /  24.1 °C 49.4 °F /  9.7 °C 30.04in /  1017.2hPa SSW 5.0mph /  8km/h 15.0mph /  24.1km/h 40% 0.00in /  0mm
17:00 75.1 °F /  23.9 °C 49.8 °F /  9.9 °C 30.04in /  1017.2hPa SSW 2.0mph /  3.2km/h 15.0mph /  24.1km/h 41% 0.00in /  0mm
17:05 75.3 °F /  24.1 °C 50.0 °F /  10 °C 30.04in /  1017.2hPa SW 4.0mph /  6.4km/h 11.0mph /  17.7km/h 41% 0.00in /  0mm
17:10 75.3 °F /  24.1 °C 49.3 °F /  9.6 °C 30.04in /  1017.2hPa SSW 4.0mph /  6.4km/h 12.0mph /  19.3km/h 40% 0.00in /  0mm
17:15 75.2 °F /  24 °C 49.9 °F /  9.9 °C 30.03in /  1016.8hPa SSW 4.0mph /  6.4km/h 12.0mph /  19.3km/h 41% 0.00in /  0mm
17:19 75.3 °F /  24.1 °C 50.0 °F /  10 °C 30.03in /  1016.8hPa SSW 2.0mph /  3.2km/h 11.0mph /  17.7km/h 41% 0.00in /  0mm
17:25 75.2 °F /  24 °C 49.2 °F /  9.6 °C 30.03in /  1016.8hPa SW 5.0mph /  8km/h 10.0mph /  16.1km/h 40% 0.00in /  0mm
17:30 74.8 °F /  23.8 °C 49.6 °F /  9.8 °C 30.03in /  1016.8hPa SW 6.0mph /  9.7km/h 10.0mph /  16.1km/h 41% 0.00in /  0mm
17:35 74.6 °F /  23.7 °C 49.4 °F /  9.7 °C 30.03in /  1016.8hPa SW 5.0mph /  8km/h 10.0mph /  16.1km/h 41% 0.00in /  0mm
17:39 74.4 °F /  23.6 °C 49.8 °F /  9.9 °C 30.03in /  1016.8hPa SW 6.0mph /  9.7km/h 10.0mph /  16.1km/h 42% 0.00in /  0mm
17:45 74.1 °F /  23.4 °C 49.6 °F /  9.8 °C 30.03in /  1016.8hPa SSW 6.0mph /  9.7km/h 13.0mph /  20.9km/h 42% 0.00in /  0mm
17:50 73.7 °F /  23.2 °C 49.2 °F /  9.6 °C 30.03in /  1016.8hPa SSW 4.0mph /  6.4km/h 13.0mph /  20.9km/h 42% 0.00in /  0mm
17:54 73.5 °F /  23.1 °C 49.0 °F /  9.4 °C 30.02in /  1016.5hPa SSW 3.0mph /  4.8km/h 11.0mph /  17.7km/h 42% 0.00in /  0mm
18:00 73.3 °F /  22.9 °C 49.5 °F /  9.7 °C 30.03in /  1016.8hPa SSW 5.0mph /  8km/h 11.0mph /  17.7km/h 43% 0.00in /  0mm
18:05 73.1 °F /  22.8 °C 49.3 °F /  9.6 °C 30.02in /  1016.5hPa SW 4.0mph /  6.4km/h 9.0mph /  14.5km/h 43% 0.00in /  0mm
18:10 72.8 °F /  22.7 °C 49.6 °F /  9.8 °C 30.03in /  1016.8hPa SW 4.0mph /  6.4km/h 9.0mph /  14.5km/h 44% 0.00in /  0mm
18:15 72.4 °F /  22.4 °C 49.9 °F /  9.9 °C 30.02in /  1016.5hPa SSW 2.0mph /  3.2km/h 9.0mph /  14.5km/h 45% 0.00in /  0mm
18:20 71.7 °F /  22.1 °C 49.2 °F /  9.6 °C 30.02in /  1016.5hPa SSW 3.0mph /  4.8km/h 9.0mph /  14.5km/h 45% 0.00in /  0mm
18:25 71.3 °F /  21.8 °C 49.5 °F /  9.7 °C 30.02in /  1016.5hPa SSW 4.0mph /  6.4km/h 10.0mph /  16.1km/h 46% 0.00in /  0mm
18:30 70.9 °F /  21.6 °C 49.1 °F /  9.5 °C 30.02in /  1016.5hPa SSW 2.0mph /  3.2km/h 10.0mph /  16.1km/h 46% 0.00in /  0mm
18:35 70.4 °F /  21.3 °C 49.2 °F /  9.6 °C 30.02in /  1016.5hPa SW 2.0mph /  3.2km/h 10.0mph /  16.1km/h 47% 0.00in /  0mm
18:40 69.9 °F /  21.1 °C 48.8 °F /  9.3 °C 30.02in /  1016.5hPa SSW 4.0mph /  6.4km/h 10.0mph /  16.1km/h 47% 0.00in /  0mm
18:45 69.4 °F /  20.8 °C 48.9 °F /  9.4 °C 30.02in /  1016.5hPa SSW 1.0mph /  1.6km/h 8.0mph /  12.9km/h 48% 0.00in /  0mm
18:49 68.9 °F /  20.5 °C 49.0 °F /  9.4 °C 30.02in /  1016.5hPa Calm   6.0mph /  9.7km/h 49% 0.00in /  0mm
18:55 68.1 °F /  20.1 °C 48.2 °F /  9 °C 30.02in /  1016.5hPa SSW 1.0mph /  1.6km/h 6.0mph /  9.7km/h 49% 0.00in /  0mm
19:05 66.9 °F /  19.4 °C 48.2 °F /  9 °C 30.02in /  1016.5hPa SSW 1.0mph /  1.6km/h 6.0mph /  9.7km/h 51% 0.00in /  0mm
19:09 66.5 °F /  19.2 °C 48.4 °F /  9.1 °C 30.02in /  1016.5hPa Calm   6.0mph /  9.7km/h 52% 0.00in /  0mm
19:15 66.0 °F /  18.9 °C 47.9 °F /  8.8 °C 30.02in /  1016.5hPa Calm   6.0mph /  9.7km/h 52% 0.00in /  0mm
19:20 65.6 °F /  18.7 °C 48.0 °F /  8.9 °C 30.02in /  1016.5hPa Calm   5.0mph /  8km/h 53% 0.00in /  0mm
19:25 65.2 °F /  18.4 °C 48.2 °F /  9 °C 30.02in /  1016.5hPa Calm   1.0mph /  1.6km/h 54% 0.00in /  0mm
19:30 64.6 °F /  18.1 °C 47.6 °F /  8.7 °C 30.02in /  1016.5hPa Calm   1.0mph /  1.6km/h 54% 0.00in /  0mm
19:35 64.0 °F /  17.8 °C 47.5 °F /  8.6 °C 30.02in /  1016.5hPa Calm   1.0mph /  1.6km/h 55% 0.00in /  0mm
19:40 63.8 °F /  17.7 °C 47.8 °F /  8.8 °C 30.02in /  1016.5hPa Calm   3.0mph /  4.8km/h 56% 0.00in /  0mm
19:50 62.8 °F /  17.1 °C 47.8 °F /  8.8 °C 30.02in /  1016.5hPa Calm   3.0mph /  4.8km/h 58% 0.00in /  0mm
19:55 62.2 °F /  16.8 °C 47.7 °F /  8.7 °C 30.02in /  1016.5hPa Calm   1.0mph /  1.6km/h 59% 0.00in /  0mm
19:59 62.0 °F /  16.7 °C 47.5 °F /  8.6 °C 30.03in /  1016.8hPa Calm   1.0mph /  1.6km/h 59% 0.00in /  0mm
20:05 61.2 °F /  16.2 °C 48.1 °F /  8.9 °C 30.03in /  1016.8hPa Calm   1.0mph /  1.6km/h 62% 0.00in /  0mm
20:10 60.7 °F /  15.9 °C 47.6 °F /  8.7 °C 30.03in /  1016.8hPa Calm   1.0mph /  1.6km/h 62% 0.00in /  0mm
20:15 60.5 °F /  15.8 °C 47.0 °F /  8.3 °C 30.03in /  1016.8hPa SSW 2.0mph /  3.2km/h 4.0mph /  6.4km/h 61% 0.00in /  0mm
20:20 61.1 °F /  16.2 °C 46.7 °F /  8.2 °C 30.03in /  1016.8hPa SSW 4.0mph /  6.4km/h 6.0mph /  9.7km/h 59% 0.00in /  0mm
20:25 61.6 °F /  16.4 °C 46.7 °F /  8.2 °C 30.03in /  1016.8hPa SSW 3.0mph /  4.8km/h 7.0mph /  11.3km/h 58% 0.00in /  0mm
20:30 62.3 °F /  16.8 °C 46.4 °F /  8 °C 30.03in /  1016.8hPa SSW 3.0mph /  4.8km/h 7.0mph /  11.3km/h 56% 0.00in /  0mm
20:35 62.3 °F /  16.8 °C 46.4 °F /  8 °C 30.03in /  1016.8hPa Calm   7.0mph /  11.3km/h 56% 0.00in /  0mm
20:40 61.9 °F /  16.6 °C 46.0 °F /  7.8 °C 30.03in /  1016.8hPa Calm   5.0mph /  8km/h 56% 0.00in /  0mm
20:50 61.3 °F /  16.3 °C 46.0 °F /  7.8 °C 30.03in /  1016.8hPa SSW 2.0mph /  3.2km/h 6.0mph /  9.7km/h 57% 0.00in /  0mm
20:55 61.4 °F /  16.3 °C 45.6 °F /  7.6 °C 30.03in /  1016.8hPa SW 2.0mph /  3.2km/h 7.0mph /  11.3km/h 56% 0.00in /  0mm
21:00 61.8 °F /  16.6 °C 46.0 °F /  7.8 °C 30.03in /  1016.8hPa SSW 4.0mph /  6.4km/h 7.0mph /  11.3km/h 56% 0.00in /  0mm
21:05 62.1 °F /  16.7 °C 45.8 °F /  7.7 °C 30.03in /  1016.8hPa SSW 4.0mph /  6.4km/h 7.0mph /  11.3km/h 55% 0.00in /  0mm
21:10 62.3 °F /  16.8 °C 45.9 °F /  7.7 °C 30.03in /  1016.8hPa SSW 2.0mph /  3.2km/h 8.0mph /  12.9km/h 55% 0.00in /  0mm
21:15 62.1 °F /  16.7 °C 45.8 °F /  7.7 °C 30.04in /  1017.2hPa SSW 3.0mph /  4.8km/h 8.0mph /  12.9km/h 55% 0.00in /  0mm
21:20 61.6 °F /  16.4 °C 45.8 °F /  7.7 °C 30.04in /  1017.2hPa SSW 3.0mph /  4.8km/h 6.0mph /  9.7km/h 56% 0.00in /  0mm
21:25 61.0 °F /  16.1 °C 45.7 °F /  7.6 °C 30.04in /  1017.2hPa SSW 2.0mph /  3.2km/h 6.0mph /  9.7km/h 57% 0.00in /  0mm
21:30 60.4 °F /  15.8 °C 45.6 °F /  7.6 °C 30.04in /  1017.2hPa SSW 2.0mph /  3.2km/h 6.0mph /  9.7km/h 58% 0.00in /  0mm
21:40 59.3 °F /  15.2 °C 45.4 °F /  7.4 °C 30.04in /  1017.2hPa SSW 2.0mph /  3.2km/h 5.0mph /  8km/h 60% 0.00in /  0mm
21:50 59.0 °F /  15 °C 45.6 °F /  7.6 °C 30.04in /  1017.2hPa SSW 3.0mph /  4.8km/h 7.0mph /  11.3km/h 61% 0.00in /  0mm
21:55 59.4 °F /  15.2 °C 45.5 °F /  7.5 °C 30.05in /  1017.5hPa SSW 3.0mph /  4.8km/h 7.0mph /  11.3km/h 60% 0.00in /  0mm
22:00 60.8 °F /  16 °C 45.9 °F /  7.7 °C 30.05in /  1017.5hPa SSW 4.0mph /  6.4km/h 7.0mph /  11.3km/h 58% 0.00in /  0mm
22:05 61.6 °F /  16.4 °C 46.2 °F /  7.9 °C 30.05in /  1017.5hPa SSW 4.0mph /  6.4km/h 8.0mph /  12.9km/h 57% 0.00in /  0mm
22:10 61.9 °F /  16.6 °C 46.0 °F /  7.8 °C 30.05in /  1017.5hPa SSW 2.0mph /  3.2km/h 8.0mph /  12.9km/h 56% 0.00in /  0mm
22:15 61.9 °F /  16.6 °C 46.0 °F /  7.8 °C 30.05in /  1017.5hPa SSW 3.0mph /  4.8km/h 8.0mph /  12.9km/h 56% 0.00in /  0mm
22:20 61.7 °F /  16.5 °C 46.3 °F /  7.9 °C 30.05in /  1017.5hPa SSW 3.0mph /  4.8km/h 7.0mph /  11.3km/h 57% 0.00in /  0mm
22:30 61.4 °F /  16.3 °C 46.5 °F /  8.1 °C 30.05in /  1017.5hPa SSW 3.0mph /  4.8km/h 7.0mph /  11.3km/h 58% 0.00in /  0mm
22:35 61.8 °F /  16.6 °C 46.9 °F /  8.3 °C 30.05in /  1017.5hPa SSW 3.0mph /  4.8km/h 7.0mph /  11.3km/h 58% 0.00in /  0mm
22:40 61.8 °F /  16.6 °C 46.9 °F /  8.3 °C 30.05in /  1017.5hPa SSW 4.0mph /  6.4km/h 9.0mph /  14.5km/h 58% 0.00in /  0mm
22:45 61.8 °F /  16.6 °C 46.9 °F /  8.3 °C 30.05in /  1017.5hPa SSW 3.0mph /  4.8km/h 9.0mph /  14.5km/h 58% 0.00in /  0mm
22:50 61.7 °F /  16.5 °C 46.8 °F /  8.2 °C 30.05in /  1017.5hPa SSW 2.0mph /  3.2km/h 8.0mph /  12.9km/h 58% 0.00in /  0mm
22:55 61.7 °F /  16.5 °C 46.8 °F /  8.2 °C 30.05in /  1017.5hPa SSW 3.0mph /  4.8km/h 9.0mph /  14.5km/h 58% 0.00in /  0mm
23:00 61.8 °F /  16.6 °C 46.9 °F /  8.3 °C 30.05in /  1017.5hPa SSW 3.0mph /  4.8km/h 9.0mph /  14.5km/h 58% 0.00in /  0mm
23:05 61.6 °F /  16.4 °C 46.7 °F /  8.2 °C 30.05in /  1017.5hPa SSW 3.0mph /  4.8km/h 9.0mph /  14.5km/h 58% 0.00in /  0mm
23:10 61.4 °F /  16.3 °C 46.5 °F /  8.1 °C 30.05in /  1017.5hPa SSW 2.0mph /  3.2km/h 8.0mph /  12.9km/h 58% 0.00in /  0mm
23:15 61.3 °F /  16.3 °C 46.9 °F /  8.3 °C 30.05in /  1017.5hPa Calm   7.0mph /  11.3km/h 59% 0.00in /  0mm
23:20 61.1 °F /  16.2 °C 46.7 °F /  8.2 °C 30.05in /  1017.5hPa SSW 2.0mph /  3.2km/h 7.0mph /  11.3km/h 59% 0.00in /  0mm
23:25 61.0 °F /  16.1 °C 46.6 °F /  8.1 °C 30.05in /  1017.5hPa SSW 2.0mph /  3.2km/h 6.0mph /  9.7km/h 59% 0.00in /  0mm
23:35 61.2 °F /  16.2 °C 46.3 °F /  7.9 °C 30.05in /  1017.5hPa SSW 2.0mph /  3.2km/h 7.0mph /  11.3km/h 58% 0.00in /  0mm
23:40 61.2 °F /  16.2 °C 46.3 °F /  7.9 °C 30.05in /  1017.5hPa SSW 3.0mph /  4.8km/h 7.0mph /  11.3km/h 58% 0.00in /  0mm
23:50 61.6 °F /  16.4 °C 46.2 °F /  7.9 °C 30.05in /  1017.5hPa SSW 2.0mph /  3.2km/h 7.0mph /  11.3km/h 57% 0.00in /  0mm
23:55 61.3 °F /  16.3 °C 46.0 °F /  7.8 °C 30.05in /  1017.5hPa SSW 2.0mph /  3.2km/h 7.0mph /  11.3km/h 57% 0.00in /  0mm
Westford Weather
Compliments of Weather Underground

 
 
Current Radar Loop:

Copyright © WestfordWeather.net 2007-2014. All rights reserved.